createdAt,value
2019-02-28T00:01:00.745Z,48.92
2019-02-28T00:03:29.435Z,54.10
2019-02-28T00:05:58.075Z,50.30
2019-02-28T00:08:26.612Z,49.63
2019-02-28T00:10:55.207Z,52.70
2019-02-28T00:13:23.855Z,49.98
2019-02-28T00:15:52.489Z,52.57
2019-02-28T00:18:21.273Z,53.83
2019-02-28T00:20:49.816Z,48.73
2019-02-28T00:23:19.153Z,54.15
2019-02-28T00:25:48.821Z,57.33
2019-02-28T00:28:17.437Z,53.90
2019-02-28T00:30:45.984Z,58.15
2019-02-28T00:33:14.613Z,54.67
2019-02-28T00:35:44.666Z,47.62
2019-02-28T00:38:13.617Z,59.45
2019-02-28T00:40:42.157Z,57.40
2019-02-28T00:43:11.012Z,61.13
2019-02-28T00:45:39.638Z,58.92
2019-02-28T00:48:08.243Z,53.45
2019-02-28T00:50:36.826Z,59.33
2019-02-28T00:53:06.362Z,65.17
2019-02-28T00:55:35.946Z,60.20
2019-02-28T00:58:04.571Z,61.37
2019-02-28T01:00:33.209Z,62.83
2019-02-28T01:03:01.941Z,67.03
2019-02-28T01:05:30.709Z,60.10
2019-02-28T01:07:59.416Z,66.62
2019-02-28T01:10:28.038Z,67.17
2019-02-28T01:12:56.583Z,64.32
2019-02-28T01:15:25.221Z,65.15
2019-02-28T01:17:53.827Z,64.72
2019-02-28T01:20:22.462Z,74.65
2019-02-28T01:22:51.073Z,59.42
2019-02-28T01:25:19.785Z,60.85
2019-02-28T01:27:48.390Z,68.30
2019-02-28T01:30:17.203Z,63.83
2019-02-28T01:32:49.847Z,69.45
2019-02-28T01:35:16.601Z,61.63
2019-02-28T01:37:45.209Z,70.67
2019-02-28T01:40:15.165Z,67.50
2019-02-28T01:42:43.894Z,64.27
2019-02-28T01:45:13.620Z,64.35
2019-02-28T01:47:42.233Z,65.80
2019-02-28T01:50:12.809Z,70.87
2019-02-28T01:52:45.912Z,64.35
2019-02-28T01:55:12.235Z,64.25
2019-02-28T01:57:44.099Z,64.35
2019-02-28T02:00:16.418Z,67.22
2019-02-28T02:02:44.971Z,70.67
2019-02-28T02:05:17.082Z,66.00
2019-02-28T02:07:44.018Z,75.80
2019-02-28T02:10:17.579Z,68.05
2019-02-28T02:12:47.495Z,74.20
2019-02-28T02:15:16.895Z,74.62
2019-02-28T02:17:46.307Z,65.83
2019-02-28T02:20:16.372Z,71.70
2019-02-28T02:22:45.450Z,73.80
2019-02-28T02:25:14.438Z,73.87
2019-02-28T02:27:43.172Z,72.58
2019-02-28T02:30:16.022Z,71.87
2019-02-28T02:32:44.827Z,69.87
2019-02-28T02:35:13.561Z,79.65
2019-02-28T02:37:42.105Z,68.78
2019-02-28T02:40:13.218Z,78.55
2019-02-28T02:42:47.230Z,80.50
2019-02-28T02:45:14.054Z,78.27
2019-02-28T02:47:42.658Z,77.62
2019-02-28T02:50:14.954Z,76.67
2019-02-28T02:52:43.713Z,75.05
2019-02-28T02:55:12.685Z,73.17
2019-02-28T02:57:41.407Z,78.60
2019-02-28T03:00:15.632Z,81.40
2019-02-28T03:05:12.113Z,74.55
2019-02-28T03:07:40.723Z,78.25
2019-02-28T03:10:19.760Z,77.95
2019-02-28T03:12:48.749Z,81.22
2019-02-28T03:15:25.238Z,75.67
2019-02-28T03:17:49.158Z,82.70
2019-02-28T03:20:18.155Z,80.85
2019-02-28T03:22:46.815Z,71.42
2019-02-28T03:25:17.247Z,81.02
2019-02-28T03:27:45.872Z,75.08
2019-02-28T03:30:26.373Z,75.55
2019-02-28T03:32:46.659Z,81.20
2019-02-28T03:35:15.261Z,79.35
2019-02-28T03:37:43.873Z,76.70
2019-02-28T03:40:14.117Z,79.97
2019-02-28T03:42:42.758Z,79.97
2019-02-28T03:45:15.842Z,74.70
2019-02-28T03:47:44.421Z,83.73
2019-02-28T03:50:13.637Z,79.53
2019-02-28T03:52:44.123Z,80.57
2019-02-28T03:55:15.739Z,77.55
2019-02-28T03:57:44.296Z,83.47
2019-02-28T04:00:15.894Z,84.47
2019-02-28T04:02:44.502Z,88.50
2019-02-28T04:05:13.239Z,86.50
2019-02-28T04:07:41.869Z,88.17
2019-02-28T04:10:16.692Z,79.77
2019-02-28T04:12:45.625Z,84.40
2019-02-28T04:15:18.013Z,85.57
2019-02-28T04:17:46.626Z,84.87
2019-02-28T04:20:15.359Z,86.10
2019-02-28T04:22:43.990Z,85.07
2019-02-28T04:25:12.711Z,82.90
2019-02-28T04:27:41.842Z,87.53
2019-02-28T04:30:12.458Z,87.70
2019-02-28T04:32:41.166Z,83.60
2019-02-28T04:35:10.201Z,83.17
2019-02-28T04:37:44.907Z,83.22
2019-02-28T04:40:11.426Z,80.55
2019-02-28T04:42:39.911Z,84.45
2019-02-28T04:45:13.245Z,85.15
2019-02-28T04:47:41.971Z,89.47
2019-02-28T04:50:12.461Z,83.42
2019-02-28T04:52:46.705Z,87.25
2019-02-28T04:55:11.843Z,86.87
2019-02-28T04:57:40.455Z,83.47
2019-02-28T05:00:19.248Z,84.52
2019-02-28T05:02:47.860Z,87.02
2019-02-28T05:05:17.096Z,88.76
2019-02-28T05:07:45.702Z,89.45
2019-02-28T05:10:14.391Z,89.05
2019-02-28T05:12:43.006Z,91.65
2019-02-28T05:15:16.001Z,103.65
2019-02-28T05:17:44.620Z,93.45
2019-02-28T05:20:13.618Z,91.60
2019-02-28T05:22:42.254Z,104.43
2019-02-28T05:25:17.368Z,91.00
2019-02-28T05:27:42.178Z,104.45
2019-02-28T05:30:17.954Z,97.72
2019-02-28T05:32:45.361Z,102.10
2019-02-28T05:35:14.178Z,111.90
2019-02-28T05:37:46.690Z,108.10
2019-02-28T05:40:15.508Z,104.55
2019-02-28T05:42:44.106Z,112.83
2019-02-28T05:45:14.945Z,105.03
2019-02-28T05:47:46.983Z,104.60
2019-02-28T05:50:16.587Z,99.85
2019-02-28T05:52:44.788Z,105.30
2019-02-28T05:55:13.499Z,91.60
2019-02-28T05:57:43.270Z,103.27
2019-02-28T06:00:16.422Z,92.75
2019-02-28T06:02:45.196Z,97.15
2019-02-28T06:05:13.820Z,98.92
2019-02-28T06:07:42.715Z,98.87
2019-02-28T06:10:13.105Z,107.45
2019-02-28T06:12:43.793Z,99.60
2019-02-28T06:15:13.885Z,102.27
2019-02-28T06:17:42.504Z,113.45
2019-02-28T06:20:16.302Z,98.00
2019-02-28T06:22:42.954Z,104.83
2019-02-28T06:25:12.866Z,113.60
2019-02-28T06:27:45.602Z,114.28
2019-02-28T06:30:14.805Z,115.80
2019-02-28T06:32:43.413Z,116.73
2019-02-28T06:35:16.157Z,112.30
2019-02-28T06:37:42.508Z,120.08
2019-02-28T06:40:14.163Z,112.80
2019-02-28T06:42:43.547Z,119.80
2019-02-28T06:45:17.749Z,115.17
2019-02-28T06:47:49.749Z,121.60
2019-02-28T06:50:16.919Z,115.97
2019-02-28T06:52:45.556Z,111.77
2019-02-28T06:55:15.926Z,109.63
2019-02-28T06:57:44.507Z,120.67
2019-02-28T07:00:16.568Z,111.73
2019-02-28T07:02:45.447Z,113.37
2019-02-28T07:05:14.255Z,109.12
2019-02-28T07:07:45.862Z,111.70
2019-02-28T07:10:15.595Z,109.80
2019-02-28T07:12:44.278Z,107.43
2019-02-28T07:15:14.419Z,112.15
2019-02-28T07:17:46.293Z,111.03
2019-02-28T07:20:18.562Z,107.67
2019-02-28T07:22:47.169Z,110.32
2019-02-28T07:25:15.784Z,112.32
2019-02-28T07:27:44.414Z,111.28
2019-02-28T07:30:20.577Z,123.37
2019-02-28T07:32:49.297Z,109.20
2019-02-28T07:35:17.899Z,113.03
2019-02-28T07:37:46.801Z,107.85
2019-02-28T07:40:19.816Z,104.92
2019-02-28T07:42:48.623Z,91.78
2019-02-28T07:45:17.240Z,103.72
2019-02-28T07:47:51.778Z,95.77
2019-02-28T07:50:16.910Z,93.50
2019-02-28T07:52:45.532Z,102.02
2019-02-28T07:55:18.658Z,95.03
2019-02-28T07:57:51.206Z,100.20
2019-02-28T08:00:23.401Z,97.37
2019-02-28T08:02:52.416Z,96.45
2019-02-28T08:05:21.031Z,92.15
2019-02-28T08:07:52.493Z,88.33
2019-02-28T08:10:25.810Z,87.37
2019-02-28T08:12:54.501Z,90.25
2019-02-28T08:15:24.356Z,84.87
2019-02-28T08:17:53.099Z,81.55
2019-02-28T08:20:22.051Z,86.92
2019-02-28T08:22:50.658Z,88.75
2019-02-28T08:25:19.377Z,86.12
2019-02-28T08:27:47.991Z,81.78
2019-02-28T08:30:24.255Z,82.55
2019-02-28T08:32:52.901Z,87.80
2019-02-28T08:35:21.530Z,81.40
2019-02-28T08:37:55.448Z,85.62
2019-02-28T08:40:26.881Z,91.20
2019-02-28T08:42:55.940Z,86.40
2019-02-28T08:45:24.559Z,88.17
2019-02-28T08:47:56.568Z,88.72
2019-02-28T08:50:24.536Z,80.62
2019-02-28T08:52:54.874Z,80.73
2019-02-28T08:55:28.905Z,83.35
2019-02-28T08:57:56.886Z,82.10
2019-02-28T09:00:31.238Z,84.70
2019-02-28T09:02:55.222Z,81.75
2019-02-28T09:05:27.291Z,91.90
2019-02-28T09:07:54.232Z,87.35
2019-02-28T09:10:24.141Z,81.47
2019-02-28T09:12:52.852Z,89.58
2019-02-28T09:15:21.762Z,73.95
2019-02-28T09:17:50.711Z,83.33
2019-02-28T09:20:19.420Z,82.33
2019-02-28T09:22:48.045Z,83.37
2019-02-28T09:25:24.421Z,83.27
2019-02-28T09:27:53.171Z,79.47
2019-02-28T09:30:45.513Z,84.77
2019-02-28T09:33:14.067Z,75.67
2019-02-28T09:35:46.281Z,87.80
2019-02-28T09:38:13.715Z,83.52
2019-02-28T09:40:42.868Z,82.10
2019-02-28T09:43:11.505Z,81.02
2019-02-28T09:45:41.192Z,80.15
2019-02-28T09:48:09.930Z,84.35
2019-02-28T09:50:38.517Z,84.77
2019-02-28T09:53:07.502Z,82.12
2019-02-28T09:55:36.118Z,83.52
2019-02-28T09:58:04.774Z,85.05
2019-02-28T10:00:33.589Z,80.83
2019-02-28T10:03:02.198Z,85.30
2019-02-28T10:05:30.806Z,84.13
2019-02-28T10:08:02.760Z,86.97
2019-02-28T10:10:33.254Z,83.60
2019-02-28T10:13:01.797Z,85.05
2019-02-28T10:15:30.408Z,81.13
2019-02-28T10:18:00.646Z,81.82
2019-02-28T10:20:31.722Z,82.55
2019-02-28T10:23:00.563Z,84.03
2019-02-28T10:25:29.253Z,80.65
2019-02-28T10:28:01.584Z,89.77
2019-02-28T10:30:32.188Z,89.52
2019-02-28T10:32:59.427Z,86.70
2019-02-28T10:35:28.093Z,85.03
2019-02-28T10:37:58.538Z,82.42
2019-02-28T10:40:31.426Z,82.53
2019-02-28T10:43:00.065Z,82.95
2019-02-28T10:45:28.877Z,84.60
2019-02-28T10:48:02.987Z,81.90
2019-02-28T10:50:33.639Z,79.87
2019-02-28T10:53:05.381Z,85.60
2019-02-28T10:55:33.560Z,88.52
2019-02-28T10:58:02.168Z,87.27
2019-02-28T11:00:40.695Z,90.53
2019-02-28T11:03:09.411Z,79.42
2019-02-28T11:05:40.505Z,85.97
2019-02-28T11:08:17.404Z,88.10
2019-02-28T11:10:46.433Z,83.75
2019-02-28T11:13:21.629Z,84.77
2019-02-28T11:15:50.924Z,77.58
2019-02-28T11:18:19.653Z,73.37
2019-02-28T11:20:48.490Z,77.10
2019-02-28T11:23:17.745Z,77.65
2019-02-28T11:25:46.331Z,75.42
2019-02-28T11:28:15.513Z,75.85
2019-02-28T11:30:45.995Z,74.45
2019-02-28T11:33:15.624Z,71.57
2019-02-28T11:35:44.513Z,72.50
2019-02-28T11:38:13.229Z,72.95
2019-02-28T11:40:43.783Z,71.97
2019-02-28T11:43:12.647Z,81.90
2019-02-28T11:45:46.764Z,76.33
2019-02-28T11:48:26.818Z,73.90
2019-02-28T11:50:55.459Z,69.85
2019-02-28T11:53:24.079Z,74.27
2019-02-28T11:55:53.741Z,71.62
2019-02-28T11:58:23.007Z,66.37
2019-02-28T12:00:52.023Z,63.52
2019-02-28T12:03:20.717Z,68.07
2019-02-28T12:05:50.696Z,63.75
2019-02-28T12:08:19.940Z,62.58
2019-02-28T12:10:48.564Z,62.17
2019-02-28T12:13:19.586Z,59.04
2019-02-28T12:15:48.409Z,60.30
2019-02-28T12:18:16.958Z,64.82
2019-02-28T12:20:45.575Z,65.07
2019-02-28T12:23:14.304Z,62.50
2019-02-28T12:25:43.648Z,64.53
2019-02-28T12:28:12.626Z,59.50
2019-02-28T12:30:41.234Z,60.17
2019-02-28T12:33:09.856Z,63.70
2019-02-28T12:35:40.604Z,62.40
2019-02-28T12:38:10.233Z,68.92
2019-02-28T12:40:45.656Z,63.85
2019-02-28T12:45:47.122Z,66.20
2019-02-28T12:48:15.124Z,68.62
2019-02-28T12:50:43.748Z,66.77
2019-02-28T12:53:12.358Z,67.35
2019-02-28T12:55:41.373Z,70.83
2019-02-28T12:58:09.983Z,70.95
2019-02-28T13:00:46.200Z,75.55
2019-02-28T13:03:19.125Z,66.53
2019-02-28T13:05:47.940Z,67.05
2019-02-28T13:08:15.525Z,80.25
2019-02-28T13:10:44.632Z,76.15
2019-02-28T13:13:13.325Z,75.95
2019-02-28T13:15:45.552Z,76.33
2019-02-28T13:18:12.372Z,81.55
2019-02-28T13:20:41.334Z,72.90
2019-02-28T13:23:09.892Z,74.42
2019-02-28T13:25:38.589Z,85.15
2019-02-28T13:28:08.270Z,85.60
2019-02-28T13:30:39.986Z,86.12
2019-02-28T13:33:10.974Z,83.50
2019-02-28T13:35:47.079Z,82.20
2019-02-28T13:38:17.462Z,81.28
2019-02-28T13:40:44.887Z,83.25
2019-02-28T13:43:19.594Z,85.17
2019-02-28T13:45:43.596Z,89.55
2019-02-28T13:48:12.284Z,86.50
2019-02-28T13:50:40.934Z,91.15
2019-02-28T13:53:18.566Z,99.58
2019-02-28T13:55:40.855Z,90.00
2019-02-28T13:58:09.550Z,93.22
2019-02-28T14:00:44.013Z,94.05
2019-02-28T14:03:11.178Z,102.17
2019-02-28T14:05:41.428Z,101.18
2019-02-28T14:08:12.013Z,95.65
2019-02-28T14:10:41.355Z,103.38
2019-02-28T14:13:09.991Z,96.65
2019-02-28T14:15:47.904Z,101.38
2019-02-28T14:18:17.077Z,96.87
2019-02-28T14:20:45.787Z,96.95
2019-02-28T14:23:20.092Z,93.60
2019-02-28T14:25:45.184Z,87.02
2019-02-28T14:28:13.803Z,86.42
2019-02-28T14:30:42.618Z,88.65
2019-02-28T14:33:11.239Z,86.22
2019-02-28T14:35:39.892Z,94.90
2019-02-28T14:38:08.542Z,86.40
2019-02-28T14:40:37.213Z,81.20
2019-02-28T14:43:05.815Z,84.15
2019-02-28T14:45:42.849Z,84.57
2019-02-28T14:48:10.824Z,81.45
2019-02-28T14:50:39.627Z,79.70
2019-02-28T14:53:13.249Z,81.93
2019-02-28T14:55:38.625Z,86.25
2019-02-28T14:58:07.111Z,89.55
2019-02-28T15:00:39.027Z,92.78
2019-02-28T15:03:06.739Z,91.35
2019-02-28T15:05:40.038Z,99.00
2019-02-28T15:08:11.975Z,113.40
2019-02-28T15:10:39.282Z,115.60
2019-02-28T15:13:07.929Z,104.45
2019-02-28T15:15:36.721Z,113.40
2019-02-28T15:18:05.869Z,102.55
2019-02-28T15:20:34.485Z,107.27
2019-02-28T15:23:03.143Z,104.30
2019-02-28T15:25:31.938Z,98.83
2019-02-28T15:28:00.625Z,100.35
2019-02-28T15:30:34.988Z,101.45
2019-02-28T15:33:03.676Z,101.80
2019-02-28T15:35:32.310Z,94.40
2019-02-28T15:38:00.931Z,95.62
2019-02-28T15:40:38.019Z,97.72
2019-02-28T15:43:07.184Z,91.65
2019-02-28T15:45:37.275Z,95.22
2019-02-28T15:48:06.027Z,90.97
2019-02-28T15:50:34.710Z,86.72
2019-02-28T15:53:03.363Z,75.95
2019-02-28T15:55:35.297Z,81.90
2019-02-28T15:58:05.709Z,71.42
2019-02-28T16:00:34.395Z,80.62
2019-02-28T16:03:03.015Z,72.30
2019-02-28T16:05:32.054Z,75.13
2019-02-28T16:08:00.759Z,71.75
2019-02-28T16:10:34.275Z,74.97
2019-02-28T16:13:02.977Z,77.17
2019-02-28T16:15:31.656Z,76.83
2019-02-28T16:18:00.284Z,80.90
2019-02-28T16:20:32.052Z,74.47
2019-02-28T16:22:59.244Z,80.00
2019-02-28T16:25:33.222Z,78.95
2019-02-28T16:28:04.470Z,75.40
2019-02-28T16:30:32.898Z,72.60
2019-02-28T16:33:01.889Z,78.47
2019-02-28T16:35:30.677Z,80.50
2019-02-28T16:37:59.312Z,71.65
2019-02-28T16:40:30.128Z,73.75
2019-02-28T16:42:58.860Z,71.90
2019-02-28T16:45:33.343Z,71.47
2019-02-28T16:48:03.725Z,65.75
2019-02-28T16:50:32.441Z,70.08
2019-02-28T16:53:01.089Z,67.85
2019-02-28T16:55:30.884Z,63.33
2019-02-28T16:58:00.209Z,57.48
2019-02-28T17:00:29.217Z,54.37
2019-02-28T17:02:57.921Z,58.38
2019-02-28T17:05:28.186Z,58.03
2019-02-28T17:07:57.164Z,52.35
2019-02-28T17:10:27.358Z,51.03
2019-02-28T17:13:14.606Z,51.45
2019-02-28T17:15:44.904Z,45.10
2019-02-28T17:18:24.107Z,45.48
2019-02-28T17:20:52.923Z,49.50
2019-02-28T17:23:21.472Z,45.65
2019-02-28T17:25:50.198Z,36.77
2019-02-28T17:28:23.304Z,36.42
2019-02-28T17:31:08.429Z,35.85
2019-02-28T17:33:36.239Z,35.13
2019-02-28T17:36:08.323Z,37.05
2019-02-28T17:38:37.293Z,38.53
2019-02-28T17:41:05.726Z,37.20
2019-02-28T17:43:37.239Z,34.90
2019-02-28T17:46:06.678Z,37.65
2019-02-28T17:48:52.484Z,33.08
2019-02-28T17:51:40.999Z,36.30
2019-02-28T17:54:29.273Z,33.38
2019-02-28T17:57:04.790Z,30.27
2019-02-28T17:59:45.284Z,32.58
2019-02-28T18:02:16.872Z,35.08
2019-02-28T18:05:04.999Z,31.05
2019-02-28T18:07:57.802Z,30.84
2019-02-28T18:10:32.505Z,29.20
2019-02-28T18:13:09.962Z,30.43
2019-02-28T18:15:56.291Z,30.37
2019-02-28T18:18:33.575Z,35.68
2019-02-28T18:21:17.361Z,30.82
2019-02-28T18:24:20.303Z,31.37
2019-02-28T18:27:00.744Z,23.73
2019-02-28T18:29:41.106Z,22.32
2019-02-28T18:32:09.652Z,24.80
2019-02-28T18:34:38.211Z,26.77
2019-02-28T18:37:06.827Z,23.67
2019-02-28T18:39:35.435Z,20.47
2019-02-28T18:42:40.505Z,24.45
2019-02-28T18:45:11.275Z,27.57
2019-02-28T18:47:40.779Z,24.52
2019-02-28T18:50:09.947Z,23.85
2019-02-28T18:52:38.699Z,20.30
2019-02-28T18:55:08.005Z,22.87
2019-02-28T18:57:36.617Z,23.85
2019-02-28T19:00:11.898Z,20.52
2019-02-28T19:02:40.541Z,22.62
2019-02-28T19:05:09.293Z,20.45
2019-02-28T19:07:37.906Z,20.23
2019-02-28T19:10:10.871Z,23.52
2019-02-28T19:12:39.579Z,18.35
2019-02-28T19:15:10.919Z,19.70
2019-02-28T19:17:39.553Z,29.37
2019-02-28T19:20:12.060Z,21.60
2019-02-28T19:22:40.610Z,21.52
2019-02-28T19:25:12.674Z,22.73
2019-02-28T19:27:41.323Z,18.75
2019-02-28T19:30:12.879Z,20.45
2019-02-28T19:32:41.494Z,20.45
2019-02-28T19:35:10.341Z,20.17
2019-02-28T19:37:39.033Z,22.75
2019-02-28T19:40:10.167Z,17.32
2019-02-28T19:42:38.799Z,23.20
2019-02-28T19:45:16.670Z,26.77
2019-02-28T19:47:45.220Z,26.52
2019-02-28T19:50:13.865Z,21.00
2019-02-28T19:52:42.505Z,28.17
2019-02-28T19:55:13.757Z,18.12
2019-02-28T19:57:42.465Z,24.98
2019-02-28T20:00:19.050Z,15.83
2019-02-28T20:02:48.143Z,22.00
2019-02-28T20:05:16.864Z,23.62
2019-02-28T20:07:45.483Z,21.80
2019-02-28T20:10:18.160Z,23.98
2019-02-28T20:12:46.853Z,19.95
2019-02-28T20:15:22.022Z,17.27
2019-02-28T20:17:50.734Z,28.52
2019-02-28T20:20:24.424Z,23.18
2019-02-28T20:22:53.073Z,21.63
2019-02-28T20:25:21.784Z,23.27
2019-02-28T20:27:50.391Z,18.05
2019-02-28T20:30:20.826Z,17.62
2019-02-28T20:32:49.400Z,14.23
2019-02-28T20:35:26.119Z,17.50
2019-02-28T20:37:48.492Z,18.00
2019-02-28T20:40:31.308Z,16.57
2019-02-28T20:42:59.840Z,16.00
2019-02-28T20:45:28.474Z,17.67
2019-02-28T20:47:57.654Z,20.45
2019-02-28T20:50:41.342Z,21.23
2019-02-28T20:53:09.991Z,21.67
2019-02-28T20:55:38.525Z,19.60
2019-02-28T20:58:07.131Z,21.93
2019-02-28T21:00:36.051Z,22.93
2019-02-28T21:03:04.763Z,23.83
2019-02-28T21:05:33.400Z,20.77
2019-02-28T21:08:02.006Z,21.30
2019-02-28T21:10:30.626Z,22.97
2019-02-28T21:12:59.272Z,24.20
2019-02-28T21:15:27.888Z,27.67
2019-02-28T21:17:56.518Z,21.33
2019-02-28T21:20:25.124Z,27.70
2019-02-28T21:22:53.686Z,29.95
2019-02-28T21:25:22.290Z,29.77
2019-02-28T21:27:50.938Z,25.08
2019-02-28T21:30:24.630Z,24.47
2019-02-28T21:32:53.231Z,26.45
2019-02-28T21:35:22.566Z,28.40
2019-02-28T21:37:51.379Z,24.23
2019-02-28T21:40:22.160Z,28.50
2019-02-28T21:42:50.931Z,23.10
2019-02-28T21:45:22.119Z,23.38
2019-02-28T21:47:50.773Z,24.10
2019-02-28T21:50:19.575Z,26.15
2019-02-28T21:52:48.212Z,24.10
2019-02-28T21:55:17.647Z,26.80
2019-02-28T21:57:46.331Z,24.00
2019-02-28T22:00:26.810Z,23.42
2019-02-28T22:02:55.240Z,23.98
2019-02-28T22:05:23.996Z,23.38
2019-02-28T22:07:52.609Z,25.27
2019-02-28T22:10:21.247Z,24.77
2019-02-28T22:12:49.884Z,30.43
2019-02-28T22:15:25.376Z,29.32
2019-02-28T22:17:53.963Z,25.35
2019-02-28T22:20:22.802Z,25.97
2019-02-28T22:22:51.349Z,27.77
2019-02-28T22:25:20.179Z,27.98
2019-02-28T22:27:48.823Z,28.35
2019-02-28T22:30:37.717Z,27.67
2019-02-28T22:33:24.049Z,30.10
2019-02-28T22:36:00.535Z,26.23
2019-02-28T22:38:29.071Z,34.10
2019-02-28T22:40:57.716Z,29.98
2019-02-28T22:43:26.350Z,29.45
2019-02-28T22:45:54.909Z,37.50
2019-02-28T22:48:23.537Z,37.55
2019-02-28T22:50:52.322Z,31.90
2019-02-28T22:53:20.865Z,31.35
2019-02-28T22:55:49.597Z,33.02
2019-02-28T22:58:18.415Z,34.60
2019-02-28T23:01:00.782Z,37.23
2019-02-28T23:03:31.154Z,36.87
2019-02-28T23:05:59.794Z,40.85
2019-02-28T23:08:28.482Z,34.53
2019-02-28T23:10:57.100Z,34.85
2019-02-28T23:13:25.710Z,37.17
2019-02-28T23:15:54.320Z,38.60
2019-02-28T23:18:22.953Z,34.10
2019-02-28T23:20:51.680Z,39.95
2019-02-28T23:23:20.319Z,40.17
2019-02-28T23:25:48.932Z,40.55
2019-02-28T23:28:23.181Z,46.33
2019-02-28T23:33:37.775Z,46.00
2019-02-28T23:36:06.384Z,48.58
2019-02-28T23:38:34.939Z,48.83
2019-02-28T23:41:04.881Z,45.85
2019-02-28T23:43:33.498Z,50.60
2019-02-28T23:46:02.110Z,42.90
2019-02-28T23:48:30.742Z,41.63
2019-02-28T23:50:59.347Z,42.45
2019-02-28T23:53:27.924Z,40.67
2019-02-28T23:55:56.468Z,40.08
2019-02-28T23:58:24.972Z,44.58
